Home   Weather   Norway   Jørpeland   Past weeks
Flag for Norway

Past Weather in Jørpeland, Norway — Yesterday and Last 2 Weeks

Currently: 64 °F. Scattered clouds. (Weather station: Stavanger / Sola, Norway). See more current weather

Past Weather in Jørpeland — Graph

°F

Jørpeland Temperature Yesterday

Maximum temperature yesterday: 63 °F (at 12:20 pm)
Minimum temperature yesterday: 46 °F (at 4:50 am)
Average temperature yesterday: 57 °F

High & Low Weather Summary for the Past Weeks

 TemperatureHumidityPressure
High79 °F (Jul 25, 1:20 pm)100% (Jul 25, 3:20 am)30.18 "Hg (Jul 25, 3:20 am)
Low46 °F (Aug 4, 4:50 am)50% (Jul 26, 11:50 am)29.42 "Hg (Jul 29, 7:50 am)
Average61 °F79%29.80 "Hg
* Reported Jul 21 2:20 pm — Aug 5 2:20 pm, Jørpeland. Weather by CustomWeather, © 2021

Note: Actual official high and low records may vary slightly from our data, if they occured in-between our weather recording intervals... More about our weather records

Jørpeland Weather History for the Previous 24 Hours

Scroll right to see more
 ConditionsComfort  
Time TempWeatherWind HumidityBarometerVisibility
2:20 pm
Thu, Aug 5
64 °FScattered clouds.9 mph73%29.86 "HgN/A
1:50 pm68 °FScattered clouds.8 mph60%29.86 "HgN/A
1:20 pm66 °FScattered clouds.10 mph64%29.86 "HgN/A
12:50 pm66 °FScattered clouds.8 mph56%29.86 "HgN/A
12:20 pm66 °FScattered clouds.9 mph56%29.89 "HgN/A
11:50 am64 °FScattered clouds.9 mph64%29.89 "HgN/A
11:20 am64 °FScattered clouds.9 mph68%29.89 "HgN/A
10:50 am63 °FScattered clouds.10 mph73%29.89 "HgN/A
10:20 am63 °FScattered clouds.12 mph73%29.89 "HgN/A
9:50 am63 °FScattered clouds.8 mph73%29.89 "HgN/A
9:20 am61 °FScattered clouds.8 mph72%29.89 "HgN/A
8:50 am59 °FScattered clouds.9 mph77%29.89 "HgN/A
8:20 am59 °FPassing clouds.8 mph77%29.89 "HgN/A
7:50 am57 °FPassing clouds.9 mph82%29.89 "HgN/A
7:20 am55 °FScattered clouds.9 mph82%29.89 "HgN/A
6:50 am54 °FScattered clouds.8 mph88%29.89 "HgN/A
6:20 am54 °FScattered clouds.7 mph88%29.89 "HgN/A
5:50 am52 °FSunny.7 mph88%29.89 "Hg10 mi
5:20 am54 °FClear.8 mph88%29.89 "Hg10 mi
4:50 am54 °FClear.7 mph88%29.92 "Hg10 mi
4:20 am54 °FClear.9 mph88%29.92 "Hg10 mi
3:50 am52 °FClear.6 mph94%29.92 "Hg10 mi
3:20 am52 °FClear.5 mph88%29.92 "Hg10 mi
2:50 am52 °FClear.5 mph94%29.92 "Hg10 mi
2:20 am52 °FClear.5 mph88%29.92 "Hg10 mi
1:20 am54 °FClear.5 mph88%29.92 "Hg10 mi
12:50 am54 °FClear.5 mph88%29.92 "Hg10 mi
12:20 am54 °FClear.3 mph94%29.92 "Hg10 mi
11:50 pm
Wed, Aug 4
55 °FClear.3 mph88%29.92 "Hg10 mi
11:20 pm55 °FClear.3 mph88%29.92 "Hg10 mi
10:50 pm55 °FClear.3 mph88%29.92 "Hg10 mi
10:20 pm57 °FClear.3 mph82%29.92 "Hg10 mi
9:50 pm59 °FSunny.2 mph82%29.92 "Hg10 mi
9:20 pm61 °FPassing clouds.3 mph77%29.92 "HgN/A
8:50 pm61 °FPassing clouds.5 mph77%29.92 "HgN/A
8:20 pm61 °FPassing clouds.6 mph77%29.92 "HgN/A
7:50 pm61 °FPassing clouds.7 mph77%29.92 "HgN/A
7:20 pm61 °FPassing clouds.8 mph77%29.92 "HgN/A
6:50 pm63 °FPassing clouds.9 mph73%29.92 "HgN/A
6:20 pm63 °FSunny.10 mph73%29.95 "Hg10 mi
5:50 pm63 °FSunny.10 mph73%29.95 "Hg10 mi
5:20 pm63 °FSunny.9 mph73%29.95 "Hg10 mi
4:50 pm63 °FSunny.10 mph68%29.95 "Hg10 mi
4:20 pm63 °FSunny.12 mph68%29.95 "Hg10 mi
3:50 pm63 °FSunny.13 mph68%29.95 "Hg10 mi
3:20 pm63 °FSunny.13 mph64%29.95 "Hg10 mi
Weather by CustomWeather, © 2021

See weather overview